createdAt,value
2022-10-01T00:00:00.705Z,16.97
2022-10-01T00:02:28.801Z,16.96
2022-10-01T00:04:57.085Z,16.92
2022-10-01T00:07:25.180Z,16.87
2022-10-01T00:09:53.171Z,16.89
2022-10-01T00:12:21.166Z,16.90
2022-10-01T00:14:49.171Z,16.92
2022-10-01T00:17:18.854Z,16.87
2022-10-01T00:19:46.853Z,16.82
2022-10-01T00:22:14.943Z,16.76
2022-10-01T00:24:44.204Z,16.84
2022-10-01T00:27:12.637Z,16.81
2022-10-01T00:29:40.659Z,16.77
2022-10-01T00:32:10.071Z,16.78
2022-10-01T00:34:39.457Z,16.73
2022-10-01T00:37:09.669Z,16.69
2022-10-01T00:39:37.860Z,16.65
2022-10-01T00:42:18.195Z,16.64
2022-10-01T00:44:46.830Z,16.58
2022-10-01T00:47:24.449Z,16.59
2022-10-01T00:49:59.522Z,16.54
2022-10-01T00:52:32.494Z,16.39
2022-10-01T00:55:06.131Z,16.29
2022-10-01T00:57:35.804Z,16.35
2022-10-01T01:00:08.413Z,16.19
2022-10-01T01:02:36.546Z,15.99
2022-10-01T01:05:08.937Z,16.06
2022-10-01T01:07:39.433Z,15.96
2022-10-01T01:10:09.233Z,16.05
2022-10-01T01:12:48.693Z,16.08
2022-10-01T01:15:22.909Z,16.02
2022-10-01T01:17:57.339Z,16.05
2022-10-01T01:20:49.891Z,15.69
2022-10-01T01:23:48.442Z,16.14
2022-10-01T01:26:29.558Z,16.08
2022-10-01T01:29:04.432Z,16.03
2022-10-01T01:31:37.455Z,16.02
2022-10-01T01:34:12.540Z,16.02
2022-10-01T01:36:45.806Z,15.98
2022-10-01T01:39:17.352Z,16.02
2022-10-01T01:41:51.189Z,16.08
2022-10-01T01:44:25.815Z,16.10
2022-10-01T01:46:56.997Z,16.09
2022-10-01T01:49:25.584Z,16.10
2022-10-01T01:51:58.230Z,16.14
2022-10-01T01:54:29.597Z,16.09
2022-10-01T01:56:59.113Z,16.11
2022-10-01T01:59:29.267Z,16.06
2022-10-01T02:01:58.958Z,16.02
2022-10-01T02:04:30.765Z,16.04
2022-10-01T02:07:16.691Z,15.99
2022-10-01T02:09:53.356Z,16.03
2022-10-01T02:12:35.781Z,16.05
2022-10-01T02:15:11.902Z,16.02
2022-10-01T02:17:50.638Z,16.01
2022-10-01T02:20:24.465Z,15.98
2022-10-01T02:22:56.391Z,16.02
2022-10-01T02:25:27.926Z,16.02
2022-10-01T02:28:01.629Z,16.02
2022-10-01T02:30:35.635Z,15.97
2022-10-01T02:33:05.882Z,15.95
2022-10-01T02:35:36.464Z,15.92
2022-10-01T02:38:07.498Z,15.90
2022-10-01T02:40:39.070Z,15.89
2022-10-01T02:43:11.803Z,15.84
2022-10-01T02:45:44.927Z,15.86
2022-10-01T02:48:18.146Z,15.85
2022-10-01T02:50:51.179Z,15.68
2022-10-01T02:53:23.369Z,15.86
2022-10-01T02:55:53.897Z,15.80
2022-10-01T02:58:21.540Z,15.76
2022-10-01T03:00:50.934Z,15.81
2022-10-01T03:03:18.865Z,15.80
2022-10-01T03:05:46.799Z,15.77
2022-10-01T03:08:14.738Z,15.63
2022-10-01T03:10:46.575Z,15.55
2022-10-01T03:13:15.109Z,15.50
2022-10-01T03:15:43.178Z,15.37
2022-10-01T03:18:12.568Z,15.15
2022-10-01T03:20:40.509Z,15.15
2022-10-01T03:23:08.442Z,15.05
2022-10-01T03:25:36.483Z,15.06
2022-10-01T03:28:04.536Z,15.00
2022-10-01T03:30:33.308Z,14.91
2022-10-01T03:33:01.286Z,14.86
2022-10-01T03:35:30.594Z,14.87
2022-10-01T03:37:58.536Z,14.88
2022-10-01T03:40:26.537Z,14.88
2022-10-01T03:42:54.490Z,14.86
2022-10-01T03:45:22.453Z,14.99
2022-10-01T03:47:53.458Z,15.12
2022-10-01T03:50:22.046Z,15.20
2022-10-01T03:52:51.833Z,15.29
2022-10-01T03:55:20.089Z,15.19
2022-10-01T03:57:48.464Z,14.76
2022-10-01T04:00:18.384Z,14.71
2022-10-01T04:02:46.465Z,14.73
2022-10-01T04:05:14.699Z,14.79
2022-10-01T04:07:43.404Z,14.92
2022-10-01T04:10:12.892Z,14.92
2022-10-01T04:12:40.809Z,14.94
2022-10-01T04:15:09.714Z,14.93
2022-10-01T04:17:38.729Z,14.86
2022-10-01T04:20:09.697Z,14.74
2022-10-01T04:22:40.879Z,14.58
2022-10-01T04:25:11.014Z,14.46
2022-10-01T04:27:40.430Z,14.43
2022-10-01T04:30:10.700Z,14.44
2022-10-01T04:32:38.839Z,14.55
2022-10-01T04:35:11.689Z,14.59
2022-10-01T04:37:39.652Z,14.59
2022-10-01T04:40:09.399Z,14.64
2022-10-01T04:42:42.025Z,14.65
2022-10-01T04:45:11.541Z,14.75
2022-10-01T04:47:39.450Z,14.87
2022-10-01T04:50:08.101Z,15.01
2022-10-01T04:52:36.235Z,15.08
2022-10-01T04:55:04.346Z,15.13
2022-10-01T04:57:32.251Z,15.31
2022-10-01T05:00:02.099Z,15.48
2022-10-01T05:02:30.398Z,15.65
2022-10-01T05:04:58.360Z,15.58
2022-10-01T05:07:26.287Z,16.08
2022-10-01T05:09:54.220Z,16.34
2022-10-01T05:12:24.693Z,16.48
2022-10-01T05:14:53.316Z,16.69
2022-10-01T05:17:24.110Z,16.79
2022-10-01T05:19:52.186Z,17.07
2022-10-01T05:22:20.465Z,17.29
2022-10-01T05:24:48.621Z,17.47
2022-10-01T05:27:16.742Z,17.62
2022-10-01T05:29:44.712Z,17.79
2022-10-01T05:32:13.231Z,18.01
2022-10-01T05:34:42.630Z,18.25
2022-10-01T05:37:11.005Z,18.36
2022-10-01T05:39:39.075Z,18.65
2022-10-01T05:42:07.049Z,18.82
2022-10-01T05:44:38.018Z,19.05
2022-10-01T05:47:06.937Z,19.17
2022-10-01T05:49:35.320Z,19.39
2022-10-01T05:52:04.721Z,19.60
2022-10-01T05:54:32.667Z,19.77
2022-10-01T05:57:00.577Z,19.90
2022-10-01T05:59:31.663Z,20.05
2022-10-01T06:01:59.995Z,20.31
2022-10-01T06:04:28.301Z,20.45
2022-10-01T06:06:56.271Z,20.68
2022-10-01T06:09:25.798Z,20.80
2022-10-01T06:11:54.015Z,20.97
2022-10-01T06:14:22.222Z,21.10
2022-10-01T06:16:54.366Z,21.25
2022-10-01T06:19:22.355Z,21.42
2022-10-01T06:21:50.275Z,21.73
2022-10-01T06:24:18.219Z,21.91
2022-10-01T06:26:48.557Z,21.97
2022-10-01T06:29:16.474Z,21.76
2022-10-01T06:31:44.451Z,21.69
2022-10-01T06:34:12.421Z,21.76
2022-10-01T06:36:40.335Z,21.85
2022-10-01T06:39:10.985Z,22.01
2022-10-01T06:41:38.882Z,22.22
2022-10-01T06:44:08.254Z,22.37
2022-10-01T06:46:36.314Z,22.60
2022-10-01T06:49:04.222Z,22.78
2022-10-01T06:51:49.454Z,22.85
2022-10-01T06:54:18.413Z,23.03
2022-10-01T06:56:46.514Z,23.16
2022-10-01T06:59:15.812Z,23.27
2022-10-01T07:01:43.754Z,23.28
2022-10-01T07:04:13.156Z,23.56
2022-10-01T07:06:41.291Z,23.70
2022-10-01T07:09:09.219Z,23.79
2022-10-01T07:11:39.278Z,23.94
2022-10-01T07:14:07.189Z,24.06
2022-10-01T07:16:39.321Z,24.33
2022-10-01T07:19:07.290Z,24.27
2022-10-01T07:21:35.662Z,24.35
2022-10-01T07:24:03.766Z,24.65
2022-10-01T07:26:31.710Z,24.80
2022-10-01T07:28:59.685Z,25.02
2022-10-01T07:31:27.645Z,25.27
2022-10-01T07:33:59.156Z,25.45
2022-10-01T07:36:27.200Z,25.69
2022-10-01T07:38:55.941Z,25.95
2022-10-01T07:41:23.937Z,26.22
2022-10-01T07:43:51.854Z,26.63
2022-10-01T07:46:19.855Z,26.81
2022-10-01T07:48:49.641Z,26.89
2022-10-01T07:51:18.952Z,26.83
2022-10-01T07:53:46.893Z,26.78
2022-10-01T07:56:15.182Z,26.62
2022-10-01T07:58:43.486Z,26.75
2022-10-01T08:01:11.487Z,27.07
2022-10-01T08:03:39.457Z,27.47
2022-10-01T08:06:07.503Z,27.51
2022-10-01T08:08:36.784Z,27.34
2022-10-01T08:11:04.865Z,27.14
2022-10-01T08:13:32.794Z,27.15
2022-10-01T08:16:03.360Z,27.11
2022-10-01T08:18:31.306Z,27.06
2022-10-01T08:21:00.861Z,26.87
2022-10-01T08:23:29.322Z,27.00
2022-10-01T08:26:02.559Z,27.23
2022-10-01T08:28:30.497Z,27.19
2022-10-01T08:30:58.485Z,27.42
2022-10-01T08:33:26.398Z,27.70
2022-10-01T08:35:54.293Z,27.97
2022-10-01T08:38:31.340Z,28.25
2022-10-01T08:41:08.310Z,28.41
2022-10-01T08:43:39.938Z,28.67
2022-10-01T08:46:14.167Z,28.72
2022-10-01T08:48:56.913Z,28.95
2022-10-01T08:51:28.742Z,29.17
2022-10-01T08:54:00.600Z,29.37
2022-10-01T08:56:34.593Z,29.51
2022-10-01T08:59:11.382Z,29.57
2022-10-01T09:01:39.525Z,29.61
2022-10-01T09:04:08.018Z,29.72
2022-10-01T09:06:37.814Z,29.82
2022-10-01T09:09:27.142Z,29.90
2022-10-01T09:12:18.697Z,29.88
2022-10-01T09:15:16.866Z,30.07
2022-10-01T09:18:03.416Z,30.01
2022-10-01T09:20:36.428Z,30.07
2022-10-01T09:23:18.629Z,30.26
2022-10-01T09:25:51.411Z,30.33
2022-10-01T09:28:23.679Z,30.17
2022-10-01T09:30:56.931Z,30.04
2022-10-01T09:33:30.371Z,30.17
2022-10-01T09:36:07.165Z,30.03
2022-10-01T09:38:39.787Z,30.01
2022-10-01T09:41:10.586Z,30.11
2022-10-01T09:43:41.854Z,29.97
2022-10-01T09:46:14.268Z,29.83
2022-10-01T09:48:48.927Z,29.76
2022-10-01T09:51:22.291Z,29.63
2022-10-01T09:54:02.326Z,29.62
2022-10-01T09:56:35.934Z,29.64
2022-10-01T09:59:09.391Z,29.71
2022-10-01T10:01:44.575Z,29.78
2022-10-01T10:04:16.673Z,29.75
2022-10-01T10:06:48.722Z,29.70
2022-10-01T10:09:19.917Z,29.72
2022-10-01T10:11:47.845Z,29.65
2022-10-01T10:14:29.971Z,29.48
2022-10-01T10:16:59.209Z,29.59
2022-10-01T10:19:29.343Z,29.53
2022-10-01T10:22:00.761Z,29.60
2022-10-01T10:24:33.667Z,29.62
2022-10-01T10:27:04.752Z,29.63
2022-10-01T10:29:36.522Z,29.48
2022-10-01T10:32:08.702Z,29.47
2022-10-01T10:34:39.463Z,29.49
2022-10-01T10:37:14.712Z,29.48
2022-10-01T10:39:46.791Z,29.47
2022-10-01T10:42:16.294Z,29.47
2022-10-01T10:44:49.399Z,29.47
2022-10-01T10:47:20.192Z,29.34
2022-10-01T10:49:49.972Z,29.35
2022-10-01T10:52:21.825Z,29.42
2022-10-01T10:54:51.242Z,29.41
2022-10-01T10:57:22.390Z,29.44
2022-10-01T10:59:59.555Z,29.49
2022-10-01T11:02:30.868Z,29.53
2022-10-01T11:05:01.251Z,29.57
2022-10-01T11:07:30.265Z,29.60
2022-10-01T11:10:28.512Z,29.48
2022-10-01T11:13:20.087Z,29.49
2022-10-01T11:16:11.081Z,29.38
2022-10-01T11:18:52.784Z,29.39
2022-10-01T11:21:36.563Z,29.32
2022-10-01T11:24:14.765Z,29.30
2022-10-01T11:26:53.519Z,29.27
2022-10-01T11:29:34.628Z,29.18
2022-10-01T11:32:11.793Z,29.00
2022-10-01T11:35:07.082Z,29.04
2022-10-01T11:37:59.956Z,28.90
2022-10-01T11:40:34.010Z,28.87
2022-10-01T11:43:09.691Z,28.73
2022-10-01T11:45:43.517Z,28.74
2022-10-01T11:48:17.778Z,28.71
2022-10-01T11:50:49.379Z,28.62
2022-10-01T11:53:23.758Z,28.61
2022-10-01T11:56:15.033Z,28.63
2022-10-01T11:58:54.799Z,28.65
2022-10-01T12:01:39.132Z,28.61
2022-10-01T12:04:17.734Z,28.64
2022-10-01T12:06:55.445Z,28.67
2022-10-01T12:09:28.878Z,28.64
2022-10-01T12:12:01.831Z,28.64
2022-10-01T12:14:33.930Z,28.46
2022-10-01T12:17:12.206Z,28.59
2022-10-01T12:19:46.858Z,28.50
2022-10-01T12:22:24.299Z,28.59
2022-10-01T12:24:53.696Z,28.57
2022-10-01T12:27:42.327Z,28.62
2022-10-01T12:30:13.590Z,28.66
2022-10-01T12:32:57.958Z,28.62
2022-10-01T12:35:42.706Z,28.62
2022-10-01T12:38:23.092Z,28.50
2022-10-01T12:40:57.926Z,28.45
2022-10-01T12:43:51.334Z,28.31
2022-10-01T12:46:32.279Z,28.29
2022-10-01T12:49:09.763Z,28.40
2022-10-01T12:51:45.950Z,28.38
2022-10-01T12:54:35.597Z,28.45
2022-10-01T12:57:13.489Z,28.36
2022-10-01T12:59:52.861Z,28.37
2022-10-01T13:02:53.190Z,28.35
2022-10-01T13:05:31.453Z,28.32
2022-10-01T13:08:21.511Z,28.39
2022-10-01T13:11:00.514Z,28.27
2022-10-01T13:13:33.064Z,28.28
2022-10-01T13:16:08.097Z,28.10
2022-10-01T13:18:55.589Z,27.94
2022-10-01T13:21:32.906Z,27.90
2022-10-01T13:24:09.895Z,27.89
2022-10-01T13:26:47.051Z,27.72
2022-10-01T13:29:29.971Z,27.43
2022-10-01T13:31:59.355Z,27.21
2022-10-01T13:34:36.776Z,27.07
2022-10-01T13:37:15.323Z,26.93
2022-10-01T13:39:45.189Z,27.00
2022-10-01T13:42:26.206Z,26.91
2022-10-01T13:44:56.639Z,26.90
2022-10-01T13:47:25.979Z,26.95
2022-10-01T13:50:00.534Z,26.98
2022-10-01T13:52:28.826Z,26.97
2022-10-01T13:54:59.858Z,26.93
2022-10-01T13:57:31.737Z,26.93
2022-10-01T14:00:01.283Z,27.00
2022-10-01T14:02:34.168Z,26.91
2022-10-01T14:05:30.379Z,26.83
2022-10-01T14:08:11.931Z,26.81
2022-10-01T14:11:00.574Z,26.90
2022-10-01T14:13:48.272Z,27.02
2022-10-01T14:16:17.415Z,26.89
2022-10-01T14:18:49.883Z,26.72
2022-10-01T14:21:32.257Z,26.59
2022-10-01T14:24:07.621Z,26.51
2022-10-01T14:26:44.862Z,26.37
2022-10-01T14:29:20.490Z,26.41
2022-10-01T14:31:57.938Z,26.28
2022-10-01T14:34:39.102Z,26.19
2022-10-01T14:37:11.656Z,26.09
2022-10-01T14:39:42.911Z,26.05
2022-10-01T14:42:17.423Z,25.97
2022-10-01T14:44:47.111Z,25.88
2022-10-01T14:47:20.299Z,25.75
2022-10-01T14:49:49.338Z,25.74
2022-10-01T14:52:22.063Z,25.63
2022-10-01T14:54:53.690Z,25.57
2022-10-01T14:57:30.410Z,25.43
2022-10-01T15:00:00.648Z,25.19
2022-10-01T15:02:29.614Z,25.13
2022-10-01T15:04:58.631Z,25.31
2022-10-01T15:07:29.450Z,25.39
2022-10-01T15:10:07.026Z,25.37
2022-10-01T15:12:40.950Z,25.43
2022-10-01T15:15:18.894Z,25.32
2022-10-01T15:17:47.786Z,25.22
2022-10-01T15:20:16.368Z,25.21
2022-10-01T15:22:46.354Z,25.01
2022-10-01T15:25:21.867Z,24.84
2022-10-01T15:27:54.153Z,24.50
2022-10-01T15:30:22.438Z,24.29
2022-10-01T15:32:51.506Z,24.23
2022-10-01T15:35:23.010Z,24.36
2022-10-01T15:37:53.213Z,24.29
2022-10-01T15:40:29.180Z,24.13
2022-10-01T15:43:21.921Z,24.21
2022-10-01T15:46:11.989Z,24.09
2022-10-01T15:48:40.114Z,24.09
2022-10-01T15:51:16.640Z,24.07
2022-10-01T15:53:45.502Z,24.17
2022-10-01T15:56:16.738Z,24.22
2022-10-01T15:58:51.842Z,24.19
2022-10-01T16:01:24.429Z,24.15
2022-10-01T16:03:56.103Z,24.07
2022-10-01T16:06:27.164Z,24.08
2022-10-01T16:09:06.506Z,23.89
2022-10-01T16:11:52.164Z,23.59
2022-10-01T16:14:33.089Z,23.51
2022-10-01T16:17:31.859Z,23.29
2022-10-01T16:20:01.940Z,23.38
2022-10-01T16:22:32.914Z,23.42
2022-10-01T16:25:02.283Z,23.33
2022-10-01T16:27:35.306Z,23.42
2022-10-01T16:30:13.112Z,23.34
2022-10-01T16:32:41.066Z,23.39
2022-10-01T16:35:21.922Z,23.30
2022-10-01T16:37:51.875Z,23.22
2022-10-01T16:40:21.697Z,23.21
2022-10-01T16:42:50.643Z,23.17
2022-10-01T16:45:24.327Z,23.19
2022-10-01T16:47:53.432Z,23.16
2022-10-01T16:50:23.007Z,23.11
2022-10-01T16:52:53.913Z,23.10
2022-10-01T16:55:24.772Z,22.99
2022-10-01T16:57:53.834Z,22.91
2022-10-01T17:00:25.228Z,22.86
2022-10-01T17:02:53.996Z,22.86
2022-10-01T17:05:25.338Z,22.88
2022-10-01T17:07:53.800Z,22.88
2022-10-01T17:10:23.645Z,22.80
2022-10-01T17:12:51.798Z,22.59
2022-10-01T17:15:23.313Z,22.50
2022-10-01T17:17:52.642Z,22.61
2022-10-01T17:20:21.625Z,22.51
2022-10-01T17:22:50.154Z,22.48
2022-10-01T17:25:20.313Z,22.43
2022-10-01T17:27:48.550Z,22.35
2022-10-01T17:30:16.906Z,22.30
2022-10-01T17:32:45.057Z,22.24
2022-10-01T17:35:15.838Z,22.20
2022-10-01T17:37:44.293Z,22.17
2022-10-01T17:40:12.417Z,22.20
2022-10-01T17:42:40.966Z,22.28
2022-10-01T17:45:11.426Z,22.26
2022-10-01T17:47:44.276Z,22.22
2022-10-01T17:50:12.522Z,22.17
2022-10-01T17:52:42.532Z,22.07
2022-10-01T17:55:12.286Z,21.97
2022-10-01T17:57:40.453Z,22.00
2022-10-01T18:00:09.584Z,21.98
2022-10-01T18:02:42.021Z,21.89
2022-10-01T18:05:12.600Z,21.87
2022-10-01T18:07:42.571Z,21.82
2022-10-01T18:10:13.113Z,21.77
2022-10-01T18:12:41.114Z,21.69
2022-10-01T18:15:10.190Z,21.59
2022-10-01T18:17:43.395Z,21.54
2022-10-01T18:20:19.385Z,21.53
2022-10-01T18:22:48.704Z,21.45
2022-10-01T18:25:19.308Z,21.39
2022-10-01T18:27:50.155Z,21.43
2022-10-01T18:30:20.340Z,21.46
2022-10-01T18:32:56.932Z,21.41
2022-10-01T18:35:31.063Z,21.41
2022-10-01T18:38:06.925Z,21.47
2022-10-01T18:40:41.250Z,21.51
2022-10-01T18:43:14.526Z,21.51
2022-10-01T18:45:57.889Z,21.48
2022-10-01T18:48:59.522Z,21.48
2022-10-01T18:51:41.084Z,21.55
2022-10-01T18:54:25.967Z,21.57
2022-10-01T18:57:03.534Z,21.39
2022-10-01T18:59:47.316Z,21.45
2022-10-01T19:02:30.776Z,21.46
2022-10-01T19:05:35.401Z,21.50
2022-10-01T19:08:15.148Z,21.49
2022-10-01T19:10:51.528Z,21.34
2022-10-01T19:13:26.098Z,21.29
2022-10-01T19:16:07.072Z,21.28
2022-10-01T19:18:55.106Z,21.16
2022-10-01T19:21:30.716Z,21.11
2022-10-01T19:24:36.444Z,21.06
2022-10-01T19:27:20.198Z,21.04
2022-10-01T19:29:59.694Z,20.81
2022-10-01T19:32:35.646Z,20.82
2022-10-01T19:35:13.245Z,20.70
2022-10-01T19:37:47.078Z,20.72
2022-10-01T19:40:22.521Z,20.65
2022-10-01T19:42:57.278Z,20.61
2022-10-01T19:45:30.238Z,20.59
2022-10-01T19:48:09.965Z,20.53
2022-10-01T19:50:41.932Z,20.55
2022-10-01T19:53:19.758Z,20.46
2022-10-01T19:55:49.530Z,20.42
2022-10-01T19:58:20.729Z,20.32
2022-10-01T20:00:53.519Z,20.26
2022-10-01T20:03:31.161Z,20.34
2022-10-01T20:06:04.738Z,20.32
2022-10-01T20:08:38.962Z,20.34
2022-10-01T20:11:14.724Z,20.33
2022-10-01T20:14:04.902Z,20.35
2022-10-01T20:16:40.898Z,20.35
2022-10-01T20:19:20.351Z,20.35
2022-10-01T20:22:00.959Z,20.37
2022-10-01T20:24:42.642Z,20.39
2022-10-01T20:27:20.058Z,20.39
2022-10-01T20:29:55.274Z,20.38
2022-10-01T20:32:28.392Z,20.38
2022-10-01T20:35:10.962Z,20.35
2022-10-01T20:38:00.156Z,20.36
2022-10-01T20:40:33.025Z,20.37
2022-10-01T20:43:07.207Z,20.26
2022-10-01T20:45:36.825Z,20.29
2022-10-01T20:48:11.494Z,20.36
2022-10-01T20:50:44.900Z,20.35
2022-10-01T20:53:24.991Z,20.40
2022-10-01T20:55:57.265Z,20.37
2022-10-01T20:58:28.965Z,20.40
2022-10-01T21:01:03.058Z,20.39
2022-10-01T21:03:33.307Z,20.39
2022-10-01T21:06:07.274Z,20.40
2022-10-01T21:08:48.886Z,20.37
2022-10-01T21:11:25.934Z,20.37
2022-10-01T21:13:59.889Z,20.32
2022-10-01T21:16:46.431Z,20.28
2022-10-01T21:19:32.130Z,20.36
2022-10-01T21:22:09.383Z,20.29
2022-10-01T21:24:51.622Z,20.12
2022-10-01T21:27:34.882Z,20.30
2022-10-01T21:30:08.926Z,20.28
2022-10-01T21:33:09.805Z,20.23
2022-10-01T21:35:47.980Z,19.78
2022-10-01T21:38:28.309Z,19.65
2022-10-01T21:41:09.257Z,19.45
2022-10-01T21:43:50.805Z,19.20
2022-10-01T21:46:25.914Z,19.14
2022-10-01T21:49:00.981Z,18.59
2022-10-01T21:51:47.876Z,18.80
2022-10-01T21:54:45.759Z,18.68
2022-10-01T21:57:29.015Z,18.72
2022-10-01T22:00:11.131Z,18.68
2022-10-01T22:02:51.990Z,18.64
2022-10-01T22:05:29.743Z,18.61
2022-10-01T22:08:14.644Z,18.73
2022-10-01T22:10:45.373Z,18.80
2022-10-01T22:13:17.501Z,18.72
2022-10-01T22:15:48.239Z,18.72
2022-10-01T22:18:22.653Z,18.90
2022-10-01T22:20:53.909Z,19.06
2022-10-01T22:23:21.813Z,19.08
2022-10-01T22:25:57.173Z,19.05
2022-10-01T22:28:29.813Z,19.17
2022-10-01T22:31:03.212Z,19.22
2022-10-01T22:33:36.290Z,18.95
2022-10-01T22:36:12.598Z,19.02
2022-10-01T22:38:46.978Z,19.18
2022-10-01T22:41:21.169Z,19.27
2022-10-01T22:43:49.086Z,19.31
2022-10-01T22:46:46.369Z,19.34
2022-10-01T22:49:25.167Z,19.36
2022-10-01T22:52:10.377Z,19.30
2022-10-01T22:54:47.439Z,19.28
2022-10-01T22:57:30.527Z,19.28
2022-10-01T23:00:04.625Z,19.34
2022-10-01T23:02:39.663Z,19.39
2022-10-01T23:05:18.708Z,19.38
2022-10-01T23:07:57.585Z,19.41
2022-10-01T23:10:32.147Z,19.41
2022-10-01T23:13:12.311Z,19.49
2022-10-01T23:15:47.833Z,19.54
2022-10-01T23:18:27.924Z,19.55
2022-10-01T23:21:11.087Z,19.55
2022-10-01T23:23:43.143Z,19.52
2022-10-01T23:26:30.525Z,19.27
2022-10-01T23:29:24.119Z,19.31
2022-10-01T23:32:01.418Z,19.39
2022-10-01T23:34:42.467Z,19.30
2022-10-01T23:37:26.768Z,19.27
2022-10-01T23:40:01.457Z,19.16
2022-10-01T23:42:36.785Z,19.10
2022-10-01T23:45:21.342Z,19.19
2022-10-01T23:47:58.506Z,19.10
2022-10-01T23:50:32.817Z,19.16
2022-10-01T23:53:14.614Z,19.14
2022-10-01T23:56:25.556Z,19.25
2022-10-01T23:58:58.273Z,19.34
